createdAt,value
2022-09-15T00:00:16.535Z,17.93
2022-09-15T00:01:48.875Z,17.91
2022-09-15T00:03:21.974Z,17.92
2022-09-15T00:04:53.932Z,17.90
2022-09-15T00:06:26.065Z,17.89
2022-09-15T00:07:58.356Z,17.88
2022-09-15T00:09:31.173Z,17.87
2022-09-15T00:11:06.311Z,17.85
2022-09-15T00:12:38.628Z,17.85
2022-09-15T00:14:10.923Z,17.83
2022-09-15T00:15:43.306Z,17.83
2022-09-15T00:17:15.404Z,17.82
2022-09-15T00:18:47.559Z,17.83
2022-09-15T00:20:20.859Z,17.83
2022-09-15T00:21:52.907Z,17.81
2022-09-15T00:23:25.197Z,17.83
2022-09-15T00:24:57.276Z,17.82
2022-09-15T00:26:30.794Z,17.82
2022-09-15T00:28:03.179Z,17.85
2022-09-15T00:29:35.990Z,17.84
2022-09-15T00:31:09.642Z,17.86
2022-09-15T00:32:42.078Z,17.88
2022-09-15T00:34:14.215Z,17.88
2022-09-15T00:35:46.980Z,17.90
2022-09-15T00:37:19.180Z,17.90
2022-09-15T00:38:51.735Z,17.90
2022-09-15T00:40:24.054Z,17.92
2022-09-15T00:41:56.093Z,17.93
2022-09-15T00:43:46.536Z,17.93
2022-09-15T00:45:18.882Z,17.94
2022-09-15T00:47:15.254Z,17.95
2022-09-15T00:48:55.534Z,17.95
2022-09-15T00:50:28.069Z,17.95
2022-09-15T00:52:15.811Z,17.94
2022-09-15T00:53:48.745Z,17.95
2022-09-15T00:55:32.044Z,17.96
2022-09-15T00:57:06.421Z,17.96
2022-09-15T00:58:41.703Z,17.96
2022-09-15T01:00:15.652Z,17.97
2022-09-15T01:01:49.748Z,17.98
2022-09-15T01:03:23.306Z,17.98
2022-09-15T01:04:58.549Z,17.99
2022-09-15T01:06:34.152Z,18.00
2022-09-15T01:08:08.979Z,18.01
2022-09-15T01:09:51.213Z,18.00
2022-09-15T01:11:23.426Z,17.99
2022-09-15T01:12:58.761Z,17.99
2022-09-15T01:14:30.803Z,17.99
2022-09-15T01:16:15.736Z,17.99
2022-09-15T01:17:57.095Z,17.99
2022-09-15T01:19:44.211Z,17.97
2022-09-15T01:21:28.648Z,17.97
2022-09-15T01:23:20.959Z,17.98
2022-09-15T01:25:05.171Z,17.97
2022-09-15T01:26:53.606Z,17.96
2022-09-15T01:28:34.918Z,17.97
2022-09-15T01:30:11.737Z,17.96
2022-09-15T01:32:05.819Z,17.97
2022-09-15T01:33:43.782Z,17.97
2022-09-15T01:35:25.140Z,17.98
2022-09-15T01:37:02.133Z,17.99
2022-09-15T01:38:43.504Z,17.99
2022-09-15T01:40:16.168Z,18.00
2022-09-15T01:41:53.617Z,18.00
2022-09-15T01:43:27.220Z,17.99
2022-09-15T01:45:03.526Z,18.00
2022-09-15T01:46:38.067Z,17.99
2022-09-15T01:48:11.079Z,17.99
2022-09-15T01:49:49.840Z,17.99
2022-09-15T01:51:23.814Z,18.00
2022-09-15T01:52:57.520Z,17.98
2022-09-15T01:54:35.213Z,17.97
2022-09-15T01:56:09.196Z,17.98
2022-09-15T01:57:41.438Z,17.96
2022-09-15T01:59:13.586Z,17.95
2022-09-15T02:00:49.681Z,17.95
2022-09-15T02:02:28.050Z,17.93
2022-09-15T02:04:16.014Z,17.92
2022-09-15T02:05:56.381Z,17.88
2022-09-15T02:07:36.369Z,17.86
2022-09-15T02:09:31.886Z,17.84
2022-09-15T02:11:13.070Z,17.83
2022-09-15T02:12:50.721Z,17.83
2022-09-15T02:14:38.092Z,17.82
2022-09-15T02:16:19.931Z,17.84
2022-09-15T02:17:55.316Z,17.84
2022-09-15T02:19:36.144Z,17.84
2022-09-15T02:21:12.259Z,17.84
2022-09-15T02:22:47.593Z,17.83
2022-09-15T02:24:24.844Z,17.82
2022-09-15T02:26:05.054Z,17.81
2022-09-15T02:27:44.679Z,17.80
2022-09-15T02:29:18.559Z,17.80
2022-09-15T02:30:52.510Z,17.79
2022-09-15T02:32:26.051Z,17.79
2022-09-15T02:33:59.278Z,17.79
2022-09-15T02:35:33.264Z,17.80
2022-09-15T02:37:05.688Z,17.80
2022-09-15T02:38:40.980Z,17.79
2022-09-15T02:40:13.183Z,17.79
2022-09-15T02:41:46.151Z,17.78
2022-09-15T02:43:18.846Z,17.77
2022-09-15T02:44:51.181Z,17.76
2022-09-15T02:46:23.350Z,17.74
2022-09-15T02:47:55.435Z,17.73
2022-09-15T02:49:28.411Z,17.71
2022-09-15T02:51:00.462Z,17.70
2022-09-15T02:52:32.604Z,17.69
2022-09-15T02:54:04.839Z,17.66
2022-09-15T02:55:37.215Z,17.61
2022-09-15T02:57:09.342Z,17.60
2022-09-15T02:58:41.540Z,17.54
2022-09-15T03:00:14.633Z,17.51
2022-09-15T03:01:47.006Z,17.46
2022-09-15T03:03:22.092Z,17.43
2022-09-15T03:04:54.231Z,17.40
2022-09-15T03:06:29.861Z,17.39
2022-09-15T03:08:02.462Z,17.35
2022-09-15T03:09:34.531Z,17.35
2022-09-15T03:11:07.131Z,17.33
2022-09-15T03:12:40.518Z,17.33
2022-09-15T03:14:12.898Z,17.30
2022-09-15T03:15:45.066Z,17.28
2022-09-15T03:17:17.519Z,17.27
2022-09-15T03:18:49.636Z,17.22
2022-09-15T03:20:28.031Z,17.18
2022-09-15T03:22:00.129Z,17.14
2022-09-15T03:23:32.475Z,17.11
2022-09-15T03:25:07.690Z,17.07
2022-09-15T03:26:40.150Z,17.02
2022-09-15T03:28:12.199Z,16.99
2022-09-15T03:29:44.274Z,16.95
2022-09-15T03:31:16.401Z,16.91
2022-09-15T03:32:49.128Z,16.86
2022-09-15T03:34:21.152Z,16.84
2022-09-15T03:35:53.256Z,16.84
2022-09-15T03:37:25.612Z,16.82
2022-09-15T03:38:58.498Z,16.79
2022-09-15T03:40:30.795Z,16.77
2022-09-15T03:42:03.175Z,16.75
2022-09-15T03:43:35.695Z,16.75
2022-09-15T03:45:08.178Z,16.76
2022-09-15T03:46:40.215Z,16.78
2022-09-15T03:48:12.222Z,16.81
2022-09-15T03:49:44.257Z,16.85
2022-09-15T03:51:16.694Z,16.91
2022-09-15T03:52:48.793Z,16.96
2022-09-15T03:54:21.017Z,17.01
2022-09-15T03:55:53.093Z,17.06
2022-09-15T03:57:25.380Z,17.11
2022-09-15T03:58:57.698Z,17.14
2022-09-15T04:00:29.750Z,17.19
2022-09-15T04:02:01.915Z,17.23
2022-09-15T04:03:37.441Z,17.26
2022-09-15T04:05:13.457Z,17.30
2022-09-15T04:06:45.494Z,17.34
2022-09-15T04:08:17.587Z,17.37
2022-09-15T04:09:49.976Z,17.39
2022-09-15T04:11:22.755Z,17.42
2022-09-15T04:12:55.003Z,17.43
2022-09-15T04:14:27.580Z,17.45
2022-09-15T04:16:01.849Z,17.47
2022-09-15T04:17:34.236Z,17.46
2022-09-15T04:19:06.321Z,17.45
2022-09-15T04:20:38.824Z,17.46
2022-09-15T04:22:15.521Z,17.47
2022-09-15T04:23:49.814Z,17.46
2022-09-15T04:25:21.882Z,17.47
2022-09-15T04:26:54.836Z,17.48
2022-09-15T04:28:28.033Z,17.50
2022-09-15T04:30:00.338Z,17.52
2022-09-15T04:31:33.504Z,17.54
2022-09-15T04:33:05.668Z,17.57
2022-09-15T04:34:41.426Z,17.58
2022-09-15T04:36:15.210Z,17.59
2022-09-15T04:37:48.135Z,17.59
2022-09-15T04:39:20.297Z,17.57
2022-09-15T04:40:52.624Z,17.54
2022-09-15T04:42:24.790Z,17.52
2022-09-15T04:43:56.989Z,17.49
2022-09-15T04:45:29.049Z,17.48
2022-09-15T04:47:01.612Z,17.46
2022-09-15T04:48:33.842Z,17.45
2022-09-15T04:50:06.186Z,17.43
2022-09-15T04:51:38.432Z,17.42
2022-09-15T04:53:10.808Z,17.41
2022-09-15T04:54:42.854Z,17.38
2022-09-15T04:56:16.113Z,17.37
2022-09-15T04:57:48.841Z,17.36
2022-09-15T04:59:21.209Z,17.36
2022-09-15T05:00:53.297Z,17.37
2022-09-15T05:02:26.427Z,17.37
2022-09-15T05:03:59.016Z,17.37
2022-09-15T05:05:33.804Z,17.39
2022-09-15T05:07:05.842Z,17.41
2022-09-15T05:08:38.096Z,17.44
2022-09-15T05:10:10.273Z,17.48
2022-09-15T05:11:42.974Z,17.51
2022-09-15T05:13:15.405Z,17.59
2022-09-15T05:14:47.444Z,17.64
2022-09-15T05:16:21.021Z,17.69
2022-09-15T05:17:53.421Z,17.74
2022-09-15T05:19:25.529Z,17.78
2022-09-15T05:21:01.722Z,17.83
2022-09-15T05:22:35.467Z,17.88
2022-09-15T05:24:10.791Z,17.94
2022-09-15T05:25:42.927Z,17.99
2022-09-15T05:27:15.034Z,18.07
2022-09-15T05:28:47.427Z,18.15
2022-09-15T05:32:11.839Z,19.27
2022-09-15T05:33:44.130Z,19.99
2022-09-15T05:35:16.259Z,20.57
2022-09-15T05:36:48.643Z,21.02
2022-09-15T05:38:20.799Z,21.36
2022-09-15T05:39:53.034Z,21.56
2022-09-15T05:41:25.831Z,21.89
2022-09-15T05:42:58.316Z,22.16
2022-09-15T05:44:31.620Z,22.65
2022-09-15T05:46:04.172Z,23.20
2022-09-15T05:47:36.415Z,23.60
2022-09-15T05:49:09.042Z,23.89
2022-09-15T05:50:48.652Z,23.53
2022-09-15T05:52:20.637Z,23.03
2022-09-15T05:53:52.974Z,22.74
2022-09-15T05:55:25.391Z,22.48
2022-09-15T05:56:59.695Z,22.28
2022-09-15T05:58:32.066Z,22.07
2022-09-15T06:00:04.666Z,22.23
2022-09-15T06:01:44.283Z,22.63
2022-09-15T06:03:16.693Z,23.25
2022-09-15T06:04:48.805Z,23.79
2022-09-15T06:06:22.098Z,23.51
2022-09-15T06:07:55.162Z,23.32
2022-09-15T06:09:27.307Z,23.06
2022-09-15T06:11:03.866Z,22.78
2022-09-15T06:12:36.130Z,22.51
2022-09-15T06:14:08.792Z,22.37
2022-09-15T06:15:41.119Z,22.23
2022-09-15T06:17:13.311Z,22.16
2022-09-15T06:18:45.709Z,22.10
2022-09-15T06:20:18.778Z,22.06
2022-09-15T06:21:51.142Z,22.01
2022-09-15T06:23:23.229Z,21.91
2022-09-15T06:24:55.325Z,21.89
2022-09-15T06:26:28.026Z,21.91
2022-09-15T06:28:00.860Z,21.85
2022-09-15T06:29:32.966Z,21.85
2022-09-15T06:31:05.390Z,21.85
2022-09-15T06:32:38.449Z,21.85
2022-09-15T06:34:12.875Z,21.79
2022-09-15T06:35:45.004Z,21.67
2022-09-15T06:37:17.130Z,21.71
2022-09-15T06:38:49.688Z,21.76
2022-09-15T06:40:21.813Z,21.86
2022-09-15T06:42:02.385Z,21.93
2022-09-15T06:43:36.415Z,21.99
2022-09-15T06:45:08.872Z,21.93
2022-09-15T06:46:40.950Z,21.86
2022-09-15T06:48:24.410Z,21.80
2022-09-15T06:49:57.358Z,21.78
2022-09-15T06:51:35.310Z,21.77
2022-09-15T06:53:07.418Z,21.67
2022-09-15T06:54:39.451Z,21.61
2022-09-15T06:56:12.900Z,21.62
2022-09-15T06:57:45.571Z,21.64
2022-09-15T06:59:17.675Z,21.62
2022-09-15T07:00:50.104Z,21.67
2022-09-15T07:02:22.612Z,21.62
2022-09-15T07:03:56.263Z,21.59
2022-09-15T07:05:29.638Z,21.56
2022-09-15T07:07:01.837Z,21.41
2022-09-15T07:08:34.446Z,21.33
2022-09-15T07:10:06.914Z,21.26
2022-09-15T07:11:39.258Z,21.23
2022-09-15T07:13:11.576Z,21.14
2022-09-15T07:14:43.753Z,21.08
2022-09-15T07:16:16.549Z,21.07
2022-09-15T07:17:49.106Z,21.07
2022-09-15T07:19:21.290Z,21.18
2022-09-15T07:20:58.140Z,21.31
2022-09-15T07:22:30.673Z,21.42
2022-09-15T07:24:07.044Z,21.60
2022-09-15T07:25:45.023Z,21.74
2022-09-15T07:27:17.332Z,21.92
2022-09-15T07:28:57.988Z,22.02
2022-09-15T07:30:30.257Z,22.13
2022-09-15T07:32:02.364Z,22.17
2022-09-15T07:33:34.877Z,22.21
2022-09-15T07:35:07.395Z,22.26
2022-09-15T07:36:39.536Z,22.33
2022-09-15T07:38:11.884Z,22.35
2022-09-15T07:39:43.979Z,22.40
2022-09-15T07:41:20.697Z,22.47
2022-09-15T07:42:52.838Z,22.56
2022-09-15T07:44:24.930Z,22.62
2022-09-15T07:45:58.058Z,22.68
2022-09-15T07:47:30.767Z,22.72
2022-09-15T07:49:03.573Z,22.76
2022-09-15T07:50:35.764Z,22.79
2022-09-15T07:52:08.295Z,22.83
2022-09-15T07:53:40.716Z,22.92
2022-09-15T07:55:13.304Z,23.07
2022-09-15T07:56:45.335Z,23.30
2022-09-15T07:58:17.545Z,23.51
2022-09-15T07:59:49.950Z,23.75
2022-09-15T08:01:22.604Z,24.18
2022-09-15T08:02:55.496Z,24.73
2022-09-15T08:04:27.673Z,25.26
2022-09-15T08:06:01.106Z,25.94
2022-09-15T08:07:33.148Z,26.36
2022-09-15T08:09:05.687Z,26.57
2022-09-15T08:10:40.029Z,26.62
2022-09-15T08:12:12.708Z,26.63
2022-09-15T08:13:45.138Z,26.68
2022-09-15T08:15:17.419Z,26.66
2022-09-15T08:16:49.525Z,26.63
2022-09-15T08:18:22.104Z,26.64
2022-09-15T08:19:54.167Z,26.64
2022-09-15T08:21:27.789Z,26.63
2022-09-15T08:22:59.925Z,26.60
2022-09-15T08:24:32.616Z,26.55
2022-09-15T08:26:13.119Z,26.40
2022-09-15T08:27:46.127Z,26.28
2022-09-15T08:29:18.713Z,26.25
2022-09-15T08:30:57.722Z,26.26
2022-09-15T08:32:30.056Z,26.27
2022-09-15T08:34:06.449Z,26.24
2022-09-15T08:35:38.524Z,26.26
2022-09-15T08:37:10.935Z,26.27
2022-09-15T08:38:47.018Z,26.29
2022-09-15T08:40:22.180Z,26.41
2022-09-15T08:41:54.987Z,26.56
2022-09-15T08:43:29.689Z,26.66
2022-09-15T08:45:18.596Z,26.78
2022-09-15T08:46:50.673Z,26.88
2022-09-15T08:48:26.359Z,26.92
2022-09-15T08:50:03.585Z,26.93
2022-09-15T08:52:01.865Z,26.94
2022-09-15T08:53:47.978Z,26.99
2022-09-15T08:55:36.591Z,27.13
2022-09-15T08:57:11.998Z,27.25
2022-09-15T08:58:45.950Z,27.46
2022-09-15T09:00:18.087Z,27.65
2022-09-15T09:02:09.080Z,27.76
2022-09-15T09:03:41.261Z,27.90
2022-09-15T09:05:29.655Z,27.99
2022-09-15T09:07:14.300Z,28.03
2022-09-15T09:09:08.577Z,28.10
2022-09-15T09:10:41.717Z,28.15
2022-09-15T09:12:17.605Z,28.09
2022-09-15T09:14:12.615Z,28.07
2022-09-15T09:15:56.627Z,28.08
2022-09-15T09:17:47.708Z,28.03
2022-09-15T09:19:32.941Z,27.95
2022-09-15T09:21:05.445Z,27.91
2022-09-15T09:22:40.843Z,27.83
2022-09-15T09:24:13.153Z,27.59
2022-09-15T09:25:45.767Z,27.36
2022-09-15T09:27:20.699Z,27.16
2022-09-15T09:28:58.952Z,26.96
2022-09-15T09:30:32.618Z,26.80
2022-09-15T09:32:13.921Z,26.64
2022-09-15T09:33:55.391Z,26.40
2022-09-15T09:35:36.376Z,26.18
2022-09-15T09:37:14.166Z,25.98
2022-09-15T09:38:47.782Z,25.80
2022-09-15T09:40:20.779Z,25.63
2022-09-15T09:41:54.169Z,25.55
2022-09-15T09:43:28.303Z,25.52
2022-09-15T09:45:00.500Z,25.42
2022-09-15T09:46:33.088Z,25.37
2022-09-15T09:48:18.324Z,25.33
2022-09-15T09:49:50.657Z,25.33
2022-09-15T09:51:33.470Z,25.31
2022-09-15T09:53:36.662Z,25.32
2022-09-15T09:55:23.350Z,25.32
2022-09-15T09:56:56.996Z,25.33
2022-09-15T09:58:29.374Z,25.33
2022-09-15T10:00:01.904Z,25.33
2022-09-15T10:01:38.988Z,25.37
2022-09-15T10:03:14.978Z,25.43
2022-09-15T10:04:54.237Z,25.49
2022-09-15T10:06:30.378Z,25.50
2022-09-15T10:08:02.975Z,25.54
2022-09-15T10:09:36.104Z,25.58
2022-09-15T10:11:10.377Z,25.58
2022-09-15T10:12:42.636Z,25.62
2022-09-15T10:14:20.792Z,25.71
2022-09-15T10:15:53.846Z,25.86
2022-09-15T10:17:27.962Z,25.99
2022-09-15T10:19:00.011Z,26.13
2022-09-15T10:20:35.677Z,26.23
2022-09-15T10:22:07.837Z,26.29
2022-09-15T10:23:40.685Z,26.30
2022-09-15T10:25:15.792Z,26.39
2022-09-15T10:26:48.488Z,26.44
2022-09-15T10:28:25.857Z,26.48
2022-09-15T10:30:13.559Z,26.49
2022-09-15T10:31:46.204Z,26.53
2022-09-15T10:33:19.917Z,26.53
2022-09-15T10:35:14.016Z,26.54
2022-09-15T10:36:46.414Z,26.58
2022-09-15T10:38:21.885Z,26.56
2022-09-15T10:39:55.386Z,26.55
2022-09-15T10:41:28.451Z,26.53
2022-09-15T10:43:10.156Z,26.42
2022-09-15T10:44:42.162Z,26.30
2022-09-15T10:46:21.126Z,26.29
2022-09-15T10:48:11.928Z,26.32
2022-09-15T10:49:52.272Z,26.41
2022-09-15T10:51:46.547Z,26.57
2022-09-15T10:53:54.567Z,26.69
2022-09-15T10:55:52.668Z,26.66
2022-09-15T10:57:40.798Z,26.64
2022-09-15T10:59:35.779Z,26.61
2022-09-15T11:01:27.112Z,26.57
2022-09-15T11:03:09.388Z,26.52
2022-09-15T11:04:49.661Z,26.41
2022-09-15T11:06:26.410Z,26.38
2022-09-15T11:08:07.322Z,26.45
2022-09-15T11:09:39.561Z,26.40
2022-09-15T11:11:15.007Z,26.40
2022-09-15T11:12:59.698Z,26.29
2022-09-15T11:14:51.791Z,26.35
2022-09-15T11:16:27.117Z,26.26
2022-09-15T11:17:59.506Z,26.18
2022-09-15T11:19:44.595Z,26.16
2022-09-15T11:21:21.925Z,26.19
2022-09-15T11:23:26.257Z,26.28
2022-09-15T11:25:04.839Z,26.42
2022-09-15T11:26:42.487Z,26.46
2022-09-15T11:28:23.291Z,26.61
2022-09-15T11:30:01.539Z,26.78
2022-09-15T11:31:41.104Z,26.87
2022-09-15T11:33:19.070Z,26.91
2022-09-15T11:34:58.665Z,26.95
2022-09-15T11:36:43.392Z,26.97
2022-09-15T11:38:30.388Z,26.87
2022-09-15T11:40:22.841Z,26.82
2022-09-15T11:42:17.399Z,26.82
2022-09-15T11:43:55.186Z,26.82
2022-09-15T11:45:34.830Z,26.76
2022-09-15T11:47:09.937Z,26.60
2022-09-15T11:48:45.434Z,26.52
2022-09-15T11:50:32.493Z,26.37
2022-09-15T11:52:13.855Z,26.31
2022-09-15T11:53:50.955Z,26.29
2022-09-15T11:55:43.599Z,26.31
2022-09-15T11:57:21.258Z,26.30
2022-09-15T11:59:12.095Z,26.31
2022-09-15T12:00:55.889Z,26.19
2022-09-15T12:02:54.170Z,25.97
2022-09-15T12:04:31.423Z,25.74
2022-09-15T12:06:07.613Z,25.53
2022-09-15T12:07:51.545Z,25.36
2022-09-15T12:09:23.970Z,25.03
2022-09-15T12:10:56.890Z,24.85
2022-09-15T12:12:30.882Z,24.67
2022-09-15T12:14:04.480Z,24.61
2022-09-15T12:15:37.567Z,24.48
2022-09-15T12:17:16.916Z,24.44
2022-09-15T12:18:55.431Z,24.40
2022-09-15T12:20:39.491Z,24.31
2022-09-15T12:22:27.109Z,24.30
2022-09-15T12:24:02.898Z,24.30
2022-09-15T12:25:44.235Z,24.27
2022-09-15T12:27:17.194Z,24.28
2022-09-15T12:29:02.635Z,24.27
2022-09-15T12:30:39.150Z,24.24
2022-09-15T12:32:30.459Z,24.19
2022-09-15T12:34:21.138Z,24.13
2022-09-15T12:35:53.541Z,24.09
2022-09-15T12:37:26.775Z,24.09
2022-09-15T12:38:59.838Z,24.17
2022-09-15T12:40:39.884Z,24.30
2022-09-15T12:42:15.225Z,24.29
2022-09-15T12:43:59.174Z,24.28
2022-09-15T12:45:34.198Z,24.29
2022-09-15T12:47:08.048Z,24.23
2022-09-15T12:48:46.744Z,24.18
2022-09-15T12:50:30.730Z,24.11
2022-09-15T12:52:05.691Z,24.07
2022-09-15T12:53:41.611Z,24.05
2022-09-15T12:55:19.170Z,23.97
2022-09-15T12:56:52.299Z,23.91
2022-09-15T12:58:36.964Z,23.89
2022-09-15T13:00:23.463Z,23.90
2022-09-15T13:01:56.375Z,23.94
2022-09-15T13:03:51.335Z,23.93
2022-09-15T13:05:41.739Z,23.98
2022-09-15T13:07:17.305Z,23.96
2022-09-15T13:08:49.801Z,23.91
2022-09-15T13:10:28.101Z,23.84
2022-09-15T13:12:03.054Z,23.79
2022-09-15T13:13:43.951Z,23.70
2022-09-15T13:15:17.645Z,23.58
2022-09-15T13:17:08.098Z,23.49
2022-09-15T13:18:42.185Z,23.47
2022-09-15T13:20:18.022Z,23.45
2022-09-15T13:22:02.333Z,23.44
2022-09-15T13:23:37.107Z,23.51
2022-09-15T13:25:15.817Z,23.60
2022-09-15T13:26:51.378Z,23.70
2022-09-15T13:28:24.283Z,23.84
2022-09-15T13:30:19.370Z,24.00
2022-09-15T13:32:03.477Z,24.12
2022-09-15T13:36:13.446Z,24.27
2022-09-15T13:40:11.053Z,24.29
2022-09-15T13:41:46.638Z,24.37
2022-09-15T13:43:27.075Z,24.48
2022-09-15T13:45:08.971Z,24.53
2022-09-15T13:46:50.340Z,24.55
2022-09-15T13:48:31.152Z,24.55
2022-09-15T13:50:24.347Z,24.55
2022-09-15T13:52:01.030Z,24.67
2022-09-15T13:53:42.894Z,24.75
2022-09-15T13:55:16.692Z,24.85
2022-09-15T13:56:53.153Z,24.94
2022-09-15T14:00:26.949Z,25.25
2022-09-15T14:01:59.793Z,25.44
2022-09-15T14:03:37.222Z,25.54
2022-09-15T14:05:09.685Z,25.55
2022-09-15T14:06:44.124Z,25.46
2022-09-15T14:08:20.031Z,25.41
2022-09-15T14:09:52.317Z,25.34
2022-09-15T14:11:30.123Z,25.24
2022-09-15T14:13:03.045Z,25.13
2022-09-15T14:14:50.901Z,25.04
2022-09-15T14:16:34.123Z,25.00
2022-09-15T14:18:18.198Z,25.06
2022-09-15T14:19:51.575Z,25.12
2022-09-15T14:21:28.461Z,25.10
2022-09-15T14:23:00.581Z,25.14
2022-09-15T14:24:33.262Z,25.20
2022-09-15T14:26:05.577Z,25.28
2022-09-15T14:27:42.873Z,25.31
2022-09-15T14:29:20.403Z,25.27
2022-09-15T14:30:53.150Z,25.22
2022-09-15T14:32:26.081Z,25.17
2022-09-15T14:33:58.315Z,25.16
2022-09-15T14:35:35.383Z,25.18
2022-09-15T14:37:12.748Z,25.10
2022-09-15T14:38:45.076Z,25.06
2022-09-15T14:40:19.566Z,25.09
2022-09-15T14:41:51.805Z,25.12
2022-09-15T14:43:26.231Z,25.13
2022-09-15T14:47:10.387Z,25.09
2022-09-15T14:48:43.195Z,25.04
2022-09-15T14:50:16.045Z,24.96
2022-09-15T14:51:51.151Z,24.87
2022-09-15T14:53:24.750Z,24.75
2022-09-15T14:55:00.199Z,24.64
2022-09-15T14:56:34.566Z,24.52
2022-09-15T14:58:19.457Z,24.36
2022-09-15T14:59:55.314Z,24.25
2022-09-15T15:01:36.257Z,24.17
2022-09-15T15:03:23.459Z,24.16
2022-09-15T15:04:59.555Z,24.15
2022-09-15T15:06:40.230Z,24.13
2022-09-15T15:08:18.483Z,24.09
2022-09-15T15:10:01.640Z,24.08
2022-09-15T15:11:35.141Z,24.04
2022-09-15T15:13:11.325Z,24.04
2022-09-15T15:14:43.725Z,24.03
2022-09-15T15:16:19.975Z,24.02
2022-09-15T15:17:54.937Z,24.05
2022-09-15T15:19:35.897Z,24.04
2022-09-15T15:21:27.754Z,24.02
2022-09-15T15:23:11.101Z,23.93
2022-09-15T15:24:44.184Z,23.84
2022-09-15T15:26:26.675Z,23.69
2022-09-15T15:27:59.561Z,23.61
2022-09-15T15:29:47.099Z,23.54
2022-09-15T15:31:20.877Z,23.52
2022-09-15T15:32:53.731Z,23.57
2022-09-15T15:34:26.302Z,23.60
2022-09-15T15:36:02.427Z,23.58
2022-09-15T15:37:34.821Z,23.53
2022-09-15T15:39:07.861Z,23.49
2022-09-15T15:40:40.582Z,23.39
2022-09-15T15:42:14.464Z,23.30
2022-09-15T15:43:57.485Z,23.22
2022-09-15T15:45:31.170Z,23.15
2022-09-15T15:47:23.194Z,23.13
2022-09-15T15:48:56.274Z,23.13
2022-09-15T15:50:28.409Z,23.09
2022-09-15T15:52:00.919Z,23.10
2022-09-15T15:53:34.377Z,23.07
2022-09-15T15:55:07.099Z,23.06
2022-09-15T15:56:39.442Z,23.05
2022-09-15T15:58:12.391Z,23.04
2022-09-15T15:59:46.500Z,22.97
2022-09-15T16:01:19.099Z,22.91
2022-09-15T16:02:51.606Z,22.85
2022-09-15T16:04:23.803Z,22.78
2022-09-15T16:05:59.534Z,22.70
2022-09-15T16:07:34.962Z,22.65
2022-09-15T16:09:07.164Z,22.59
2022-09-15T16:10:44.223Z,22.51
2022-09-15T16:12:16.632Z,22.44
2022-09-15T16:13:49.101Z,22.36
2022-09-15T16:15:21.503Z,22.30
2022-09-15T16:16:53.997Z,22.22
2022-09-15T16:18:26.291Z,22.15
2022-09-15T16:19:58.802Z,22.08
2022-09-15T16:21:36.949Z,21.98
2022-09-15T16:23:13.260Z,21.90
2022-09-15T16:24:45.524Z,21.81
2022-09-15T16:26:21.977Z,21.73
2022-09-15T16:27:54.099Z,21.67
2022-09-15T16:29:29.940Z,21.61
2022-09-15T16:31:02.154Z,21.54
2022-09-15T16:32:34.680Z,21.49
2022-09-15T16:34:09.163Z,21.46
2022-09-15T16:35:53.262Z,21.43
2022-09-15T16:37:25.574Z,21.42
2022-09-15T16:38:58.052Z,21.42
2022-09-15T16:40:30.378Z,21.42
2022-09-15T16:42:02.804Z,21.39
2022-09-15T16:43:34.866Z,21.37
2022-09-15T16:45:19.113Z,21.33
2022-09-15T16:46:51.360Z,21.31
2022-09-15T16:48:23.625Z,21.25
2022-09-15T16:49:55.879Z,21.20
2022-09-15T16:51:31.593Z,21.15
2022-09-15T16:53:04.209Z,21.05
2022-09-15T16:54:36.383Z,20.99
2022-09-15T16:56:11.869Z,20.93
2022-09-15T16:57:44.304Z,20.87
2022-09-15T16:59:16.446Z,20.82
2022-09-15T17:00:50.016Z,20.76
2022-09-15T17:02:22.491Z,20.71
2022-09-15T17:03:55.935Z,20.66
2022-09-15T17:05:39.052Z,20.61
2022-09-15T17:07:11.177Z,20.54
2022-09-15T17:08:43.651Z,20.53
2022-09-15T17:10:16.152Z,20.46
2022-09-15T17:11:48.482Z,20.41
2022-09-15T17:13:25.052Z,20.35
2022-09-15T17:14:59.775Z,20.30
2022-09-15T17:16:32.258Z,20.25
2022-09-15T17:18:04.792Z,20.21
2022-09-15T17:19:37.079Z,20.15
2022-09-15T17:21:12.656Z,20.13
2022-09-15T17:22:45.926Z,20.09
2022-09-15T17:24:17.943Z,20.03
2022-09-15T17:25:52.834Z,20.00
2022-09-15T17:27:25.149Z,19.93
2022-09-15T17:28:57.821Z,19.87
2022-09-15T17:30:31.280Z,19.80
2022-09-15T17:32:03.350Z,19.74
2022-09-15T17:33:35.363Z,19.68
2022-09-15T17:35:22.162Z,19.62
2022-09-15T17:36:54.245Z,19.56
2022-09-15T17:38:26.646Z,19.53
2022-09-15T17:39:59.172Z,19.48
2022-09-15T17:41:32.022Z,19.42
2022-09-15T17:43:04.704Z,19.37
2022-09-15T17:44:37.793Z,19.32
2022-09-15T17:46:10.095Z,19.27
2022-09-15T17:47:42.808Z,19.22
2022-09-15T17:49:14.995Z,19.16
2022-09-15T17:50:48.729Z,19.12
2022-09-15T17:52:20.849Z,19.07
2022-09-15T17:53:53.368Z,19.04
2022-09-15T17:55:30.596Z,18.99
2022-09-15T17:57:04.006Z,19.01
2022-09-15T17:58:36.358Z,19.00
2022-09-15T18:00:10.596Z,19.02
2022-09-15T18:01:42.714Z,19.03
2022-09-15T18:03:21.473Z,19.03
2022-09-15T18:04:53.522Z,19.00
2022-09-15T18:06:26.128Z,18.97
2022-09-15T18:07:59.522Z,18.94
2022-09-15T18:09:31.786Z,18.88
2022-09-15T18:11:05.169Z,18.81
2022-09-15T18:12:37.674Z,18.75
2022-09-15T18:14:10.650Z,18.70
2022-09-15T18:15:45.276Z,18.62
2022-09-15T18:17:17.686Z,18.58
2022-09-15T18:18:50.204Z,18.54
2022-09-15T18:20:24.391Z,18.53
2022-09-15T18:21:56.670Z,18.47
2022-09-15T18:23:29.659Z,18.43
2022-09-15T18:25:02.477Z,18.41
2022-09-15T18:26:35.065Z,18.38
2022-09-15T18:28:07.569Z,18.33
2022-09-15T18:29:39.704Z,18.30
2022-09-15T18:31:13.002Z,18.25
2022-09-15T18:32:45.498Z,18.20
2022-09-15T18:34:17.541Z,18.21
2022-09-15T18:35:50.828Z,18.16
2022-09-15T18:37:23.187Z,18.13
2022-09-15T18:38:55.269Z,18.10
2022-09-15T18:40:27.910Z,18.05
2022-09-15T18:42:00.034Z,18.03
2022-09-15T18:43:32.435Z,17.97
2022-09-15T18:45:05.856Z,17.94
2022-09-15T18:46:39.443Z,17.93
2022-09-15T18:48:13.047Z,17.94
2022-09-15T18:49:45.746Z,17.85
2022-09-15T18:51:24.229Z,17.83
2022-09-15T18:53:01.428Z,17.77
2022-09-15T18:54:34.954Z,17.71
2022-09-15T18:56:11.029Z,17.67
2022-09-15T18:57:45.187Z,17.62
2022-09-15T18:59:17.878Z,17.54
2022-09-15T19:00:50.254Z,17.47
2022-09-15T19:02:22.813Z,17.40
2022-09-15T19:03:55.335Z,17.35
2022-09-15T19:05:28.033Z,17.28
2022-09-15T19:07:00.094Z,17.22
2022-09-15T19:08:36.914Z,17.17
2022-09-15T19:10:10.910Z,17.14
2022-09-15T19:11:43.503Z,17.11
2022-09-15T19:13:15.860Z,17.06
2022-09-15T19:14:48.504Z,17.02
2022-09-15T19:16:22.948Z,16.95
2022-09-15T19:17:58.177Z,16.89
2022-09-15T19:19:30.304Z,16.82
2022-09-15T19:21:10.611Z,16.79
2022-09-15T19:22:43.397Z,16.73
2022-09-15T19:24:16.129Z,16.69
2022-09-15T19:25:48.252Z,16.66
2022-09-15T19:27:21.070Z,16.64
2022-09-15T19:28:53.778Z,16.63
2022-09-15T19:30:26.000Z,16.58
2022-09-15T19:31:58.205Z,16.58
2022-09-15T19:33:33.695Z,16.56
2022-09-15T19:35:06.078Z,16.56
2022-09-15T19:36:38.286Z,16.57
2022-09-15T19:38:10.356Z,16.57
2022-09-15T19:39:43.167Z,16.58
2022-09-15T19:41:16.025Z,16.57
2022-09-15T19:42:49.890Z,16.58
2022-09-15T19:44:22.306Z,16.60
2022-09-15T19:45:54.868Z,16.63
2022-09-15T19:47:27.034Z,16.63
2022-09-15T19:48:59.454Z,16.64
2022-09-15T19:50:31.679Z,16.62
2022-09-15T19:52:06.396Z,16.64
2022-09-15T19:53:39.023Z,16.66
2022-09-15T19:55:12.030Z,16.67
2022-09-15T19:56:44.326Z,16.72
2022-09-15T19:58:17.113Z,16.74
2022-09-15T19:59:49.400Z,16.79
2022-09-15T20:01:22.957Z,16.82
2022-09-15T20:02:55.117Z,16.85
2022-09-15T20:04:28.333Z,16.91
2022-09-15T20:06:00.547Z,16.97
2022-09-15T20:07:32.806Z,17.01
2022-09-15T20:09:05.357Z,17.06
2022-09-15T20:10:39.023Z,17.10
2022-09-15T20:12:11.380Z,17.13
2022-09-15T20:13:44.060Z,17.15
2022-09-15T20:15:16.145Z,17.16
2022-09-15T20:16:48.586Z,17.17
2022-09-15T20:18:20.721Z,17.17
2022-09-15T20:19:52.854Z,17.17
2022-09-15T20:21:51.970Z,17.18
2022-09-15T20:23:21.796Z,17.20
2022-09-15T20:24:56.122Z,17.23
2022-09-15T20:26:29.736Z,17.25
2022-09-15T20:28:02.064Z,17.29
2022-09-15T20:29:34.495Z,17.30
2022-09-15T20:31:06.992Z,17.33
2022-09-15T20:32:40.139Z,17.34
2022-09-15T20:34:12.806Z,17.38
2022-09-15T20:35:45.583Z,17.38
2022-09-15T20:37:17.994Z,17.43
2022-09-15T20:38:50.885Z,17.44
2022-09-15T20:40:22.990Z,17.46
2022-09-15T20:41:56.228Z,17.49